Time;durP1;ratioP1;P1;durP2;ratioP2;P2;SDS_P1;SDS_P2;PMS_P1;PMS_P2;Temp;Humidity;BMP_temperature;BMP_pressure;BME280_temperature;BME280_humidity;BME280_pressure;Samples;Min_cycle;Max_cycle;Signal;HPM_P1;HPM_P2
2023/01/08 00:00:17;;;;;;;4.23;3.10;;;9.90;99.90;;;;;;5119711;28;20227;-85
2023/01/08 00:02:45;;;;;;;4.00;2.87;;;9.80;99.90;;;;;;5125191;27;20288;-85
2023/01/08 00:05:12;;;;;;;4.17;2.90;;;9.80;99.90;;;;;;5128254;27;20271;-85
2023/01/08 00:07:39;;;;;;;4.90;3.10;;;9.90;99.90;;;;;;5126056;27;20212;-85
2023/01/08 00:10:06;;;;;;;2.97;2.67;;;9.90;99.90;;;;;;5126616;27;20204;-85
2023/01/08 00:12:33;;;;;;;3.40;2.80;;;9.70;99.90;;;;;;5119820;28;20244;-85
2023/01/08 00:15:00;;;;;;;4.77;2.70;;;9.70;99.90;;;;;;5126270;27;20213;-85
2023/01/08 00:17:27;;;;;;;6.17;3.33;;;9.70;99.90;;;;;;5124617;27;20281;-84
2023/01/08 00:19:55;;;;;;;5.10;3.03;;;10.00;99.90;;;;;;5113977;28;20211;-85
2023/01/08 00:22:22;;;;;;;3.63;3.23;;;9.90;99.90;;;;;;5119243;27;20646;-85
2023/01/08 00:24:49;;;;;;;4.43;3.00;;;9.80;99.90;;;;;;5128997;27;20209;-86
2023/01/08 00:27:15;;;;;;;3.50;3.03;;;9.80;99.90;;;;;;5122822;28;20251;-85
2023/01/08 00:29:42;;;;;;;4.50;3.30;;;9.90;99.90;;;;;;5124278;28;20269;-85
2023/01/08 00:32:09;;;;;;;4.50;3.53;;;9.70;99.90;;;;;;5113764;28;20230;-85
2023/01/08 00:34:36;;;;;;;4.93;3.30;;;9.80;99.90;;;;;;5118468;28;20269;-85
2023/01/08 00:37:04;;;;;;;4.30;3.00;;;10.00;99.90;;;;;;5120002;28;20223;-85
2023/01/08 00:39:31;;;;;;;4.53;2.80;;;9.80;99.90;;;;;;5121390;28;20201;-85
2023/01/08 00:41:58;;;;;;;4.47;2.67;;;9.70;99.90;;;;;;5130133;27;20196;-85
2023/01/08 00:44:25;;;;;;;5.13;3.37;;;9.50;99.90;;;;;;5131806;27;20185;-85
2023/01/08 00:46:52;;;;;;;4.00;3.30;;;9.60;99.90;;;;;;5122473;28;20251;-85
2023/01/08 00:49:19;;;;;;;4.00;3.00;;;9.60;99.90;;;;;;5127974;27;20205;-85
2023/01/08 00:51:46;;;;;;;4.67;3.60;;;9.60;99.90;;;;;;5123271;27;20197;-85
2023/01/08 00:54:14;;;;;;;5.73;3.37;;;9.60;99.90;;;;;;5119921;28;20228;-85
2023/01/08 00:56:41;;;;;;;3.47;3.03;;;9.60;99.90;;;;;;5122465;28;20228;-84
2023/01/08 00:59:08;;;;;;;4.83;3.20;;;9.60;99.90;;;;;;5132622;27;20693;-85
2023/01/08 01:01:35;;;;;;;7.07;3.47;;;9.40;99.90;;;;;;5128604;27;20276;-85
2023/01/08 01:04:02;;;;;;;5.07;3.83;;;9.50;99.90;;;;;;5119108;27;20285;-85
2023/01/08 01:06:29;;;;;;;4.70;3.23;;;9.50;99.90;;;;;;5124577;27;20281;-85
2023/01/08 01:08:56;;;;;;;3.83;3.43;;;9.50;99.90;;;;;;5121448;28;20200;-84
2023/01/08 01:11:26;;;;;;;4.23;3.07;;;9.60;99.90;;;;;;5125430;27;20197;-85
2023/01/08 01:13:55;;;;;;;3.77;3.10;;;9.60;99.90;;;;;;5129115;27;20310;-85
2023/01/08 01:16:22;;;;;;;5.10;3.67;;;9.50;99.90;;;;;;5121461;28;20209;-85
2023/01/08 01:18:51;;;;;;;4.13;2.93;;;9.60;99.90;;;;;;5126941;27;20223;-85
2023/01/08 01:21:23;;;;;;;4.83;3.00;;;9.70;99.90;;;;;;5126740;28;20570;-85
2023/01/08 01:23:50;;;;;;;4.83;3.30;;;9.80;99.90;;;;;;5120093;28;20236;-84
2023/01/08 01:26:18;;;;;;;3.10;2.80;;;9.80;99.90;;;;;;5129073;27;20316;-85
2023/01/08 01:28:49;;;;;;;4.90;3.33;;;9.80;99.90;;;;;;5118658;27;20256;-84
2023/01/08 01:31:17;;;;;;;3.67;3.20;;;9.80;99.90;;;;;;5126219;28;20231;-85
2023/01/08 01:33:44;;;;;;;3.63;2.70;;;9.70;99.90;;;;;;5125004;28;20304;-85
2023/01/08 01:36:12;;;;;;;4.33;3.33;;;9.60;99.90;;;;;;5126489;27;20201;-84
2023/01/08 01:38:43;;;;;;;3.33;3.03;;;9.70;99.90;;;;;;5124846;27;20264;-84
2023/01/08 01:41:19;;;;;;;3.47;3.00;;;9.70;99.90;;;;;;5125252;28;20224;-85
2023/01/08 01:43:46;;;;;;;3.73;2.90;;;9.80;99.90;;;;;;5126548;27;20228;-85
2023/01/08 01:46:23;;;;;;;5.03;3.40;;;9.90;99.90;;;;;;5130590;27;20221;-84
2023/01/08 01:48:54;;;;;;;4.23;3.10;;;9.80;99.90;;;;;;5127102;28;20204;-85
2023/01/08 01:51:22;;;;;;;4.87;3.17;;;9.80;99.90;;;;;;5114620;28;20205;-85
2023/01/08 01:53:49;;;;;;;5.07;3.40;;;9.80;99.90;;;;;;5125316;27;20221;-85
2023/01/08 01:56:16;;;;;;;4.13;3.33;;;9.80;99.90;;;;;;5126522;27;20273;-85
2023/01/08 01:58:43;;;;;;;6.07;3.80;;;9.90;99.90;;;;;;5126295;27;20265;-85
2023/01/08 02:01:10;;;;;;;5.37;3.27;;;10.00;99.90;;;;;;5127068;27;20260;-84
2023/01/08 02:03:40;;;;;;;4.13;3.10;;;9.90;99.90;;;;;;5128372;27;20276;-85
2023/01/08 02:06:19;;;;;;;3.87;3.27;;;10.10;99.90;;;;;;5123606;28;20314;-85
2023/01/08 02:08:56;;;;;;;5.73;3.43;;;9.90;99.90;;;;;;5125764;28;20208;-85
2023/01/08 02:11:30;;;;;;;4.33;3.13;;;10.00;99.90;;;;;;5127286;27;20213;-85
2023/01/08 02:14:04;;;;;;;5.13;3.53;;;9.90;99.90;;;;;;5124685;27;20255;-85
2023/01/08 02:16:39;;;;;;;3.93;3.03;;;10.00;99.90;;;;;;5126997;27;20236;-85
2023/01/08 02:19:18;;;;;;;4.57;3.40;;;10.10;99.90;;;;;;5124780;28;20197;-84
2023/01/08 02:21:58;;;;;;;4.90;3.20;;;10.10;99.90;;;;;;5118378;28;20279;-84
2023/01/08 02:24:37;;;;;;;5.43;3.40;;;9.90;99.90;;;;;;5129936;27;20614;-85
2023/01/08 02:27:08;;;;;;;3.90;3.07;;;9.80;99.90;;;;;;5125405;28;20230;-85
2023/01/08 02:29:35;;;;;;;4.40;3.10;;;9.90;99.90;;;;;;5122333;28;20258;-86
2023/01/08 02:32:03;;;;;;;5.03;3.23;;;10.00;99.90;;;;;;5121413;28;20252;-85
2023/01/08 02:34:31;;;;;;;3.30;2.90;;;9.90;99.90;;;;;;5126272;27;20205;-85
2023/01/08 02:37:00;;;;;;;4.10;3.20;;;10.00;99.90;;;;;;5127174;28;20193;-85
2023/01/08 02:39:45;;;;;;;3.63;2.90;;;10.00;99.90;;;;;;5125646;28;20224;-84
2023/01/08 02:42:20;;;;;;;4.30;3.10;;;10.00;99.90;;;;;;5126733;28;20297;-85
2023/01/08 02:44:56;;;;;;;3.97;3.30;;;10.10;99.90;;;;;;5128504;27;20488;-86
2023/01/08 02:47:31;;;;;;;4.23;3.20;;;10.10;99.90;;;;;;5126581;27;20266;-84
2023/01/08 02:50:08;;;;;;;3.47;3.00;;;10.10;99.90;;;;;;5124307;28;20197;-84
2023/01/08 02:52:41;;;;;;;5.50;3.20;;;10.10;99.90;;;;;;5125208;28;20216;-84
2023/01/08 02:55:09;;;;;;;5.77;3.57;;;10.00;99.90;;;;;;5120974;27;20256;-86
2023/01/08 02:57:38;;;;;;;4.20;2.87;;;10.10;99.90;;;;;;5123119;27;20216;-86
2023/01/08 03:00:08;;;;;;;4.03;3.00;;;10.00;99.90;;;;;;5124809;27;20204;-85
2023/01/08 03:02:38;;;;;;;5.27;3.50;;;10.10;99.90;;;;;;5123416;28;20225;-86
2023/01/08 03:05:15;;;;;;;5.70;3.23;;;10.10;99.90;;;;;;5127384;27;20292;-86
2023/01/08 03:07:43;;;;;;;4.60;3.17;;;10.20;99.90;;;;;;5123255;28;20250;-85
2023/01/08 03:10:11;;;;;;;4.80;3.57;;;10.20;99.90;;;;;;5120499;28;20215;-84
2023/01/08 03:12:47;;;;;;;5.20;3.13;;;10.10;99.90;;;;;;5124864;28;20642;-86
2023/01/08 03:15:23;;;;;;;4.53;3.30;;;10.20;99.90;;;;;;5124140;27;20567;-86
2023/01/08 03:17:51;;;;;;;5.07;3.50;;;10.20;99.90;;;;;;5120601;28;20196;-86
2023/01/08 03:20:22;;;;;;;3.83;3.23;;;10.10;99.90;;;;;;5130011;27;20204;-87
2023/01/08 03:22:53;;;;;;;4.57;3.50;;;10.20;99.90;;;;;;5123193;28;20208;-85
2023/01/08 03:25:23;;;;;;;5.57;3.13;;;10.20;99.90;;;;;;5125202;27;20279;-85
2023/01/08 03:27:57;;;;;;;5.40;3.20;;;10.10;99.90;;;;;;5119990;28;20219;-86
2023/01/08 03:30:25;;;;;;;4.43;3.17;;;10.10;99.90;;;;;;5124940;28;20283;-85
2023/01/08 03:32:54;;;;;;;4.83;2.93;;;10.20;99.90;;;;;;5126004;28;20248;-86
2023/01/08 03:35:24;;;;;;;6.47;3.73;;;10.10;99.90;;;;;;5124306;28;20253;-85
2023/01/08 03:37:58;;;;;;;3.73;3.17;;;10.10;99.90;;;;;;5115156;28;20276;-86
2023/01/08 03:40:29;;;;;;;4.83;3.33;;;10.00;99.90;;;;;;5121771;28;20232;-85
2023/01/08 03:42:57;;;;;;;4.00;3.20;;;10.00;99.90;;;;;;5123818;28;20221;-85
2023/01/08 03:45:27;;;;;;;4.43;3.73;;;9.90;99.90;;;;;;5119349;28;20284;-86
2023/01/08 03:47:55;;;;;;;5.37;3.47;;;9.90;99.90;;;;;;5123612;28;20217;-85
2023/01/08 03:50:26;;;;;;;4.13;3.10;;;10.00;99.90;;;;;;5124231;28;20209;-84
2023/01/08 03:52:53;;;;;;;5.17;3.00;;;10.00;99.90;;;;;;5124512;27;20233;-85
2023/01/08 03:55:20;;;;;;;4.90;3.20;;;10.00;99.90;;;;;;5124167;27;20283;-85
2023/01/08 03:57:47;;;;;;;4.60;3.20;;;10.00;99.90;;;;;;5124039;28;20197;-85
2023/01/08 04:00:16;;;;;;;5.33;3.23;;;10.00;99.90;;;;;;5129100;27;20288;-85
2023/01/08 04:02:43;;;;;;;4.43;3.10;;;10.00;99.90;;;;;;5119186;28;20778;-84
2023/01/08 04:05:11;;;;;;;3.90;2.80;;;9.90;99.90;;;;;;5125212;28;20212;-86
2023/01/08 04:07:38;;;;;;;3.83;2.80;;;10.00;99.90;;;;;;5123876;28;20251;-86
2023/01/08 04:10:05;;;;;;;4.53;3.23;;;10.00;99.90;;;;;;5120085;28;20229;-85
2023/01/08 04:12:32;;;;;;;3.83;3.07;;;10.20;99.90;;;;;;5119832;28;20360;-85
2023/01/08 04:14:59;;;;;;;7.60;3.30;;;10.20;99.90;;;;;;5124871;28;20669;-86
2023/01/08 04:17:27;;;;;;;3.90;3.33;;;10.00;99.90;;;;;;5127049;27;20264;-85
2023/01/08 04:19:54;;;;;;;4.57;3.20;;;10.20;99.90;;;;;;5130920;27;20201;-85
2023/01/08 04:22:21;;;;;;;5.33;3.47;;;10.20;99.90;;;;;;5129317;27;20225;-85
2023/01/08 04:24:48;;;;;;;3.87;3.33;;;10.10;99.90;;;;;;5125733;28;20232;-85
2023/01/08 04:27:14;;;;;;;3.23;2.93;;;10.00;99.90;;;;;;5125699;27;20280;-86
2023/01/08 04:29:41;;;;;;;4.97;3.60;;;10.10;99.90;;;;;;5120551;28;20204;-85
2023/01/08 04:32:08;;;;;;;4.87;3.17;;;10.10;99.90;;;;;;5125390;27;20231;-85
2023/01/08 04:34:36;;;;;;;3.53;2.80;;;10.00;99.90;;;;;;5126972;27;20264;-86
2023/01/08 04:37:03;;;;;;;3.13;2.83;;;10.00;99.90;;;;;;5126710;28;20212;-85
2023/01/08 04:39:30;;;;;;;4.37;3.00;;;10.10;99.90;;;;;;5125082;28;20211;-85
2023/01/08 04:41:57;;;;;;;4.30;3.27;;;10.00;99.90;;;;;;5126477;27;20264;-85
2023/01/08 04:44:23;;;;;;;6.47;3.20;;;10.10;99.90;;;;;;5126076;28;20208;-85
2023/01/08 04:46:50;;;;;;;3.60;2.83;;;10.00;99.90;;;;;;5124827;27;20209;-85
2023/01/08 04:49:17;;;;;;;3.90;3.10;;;9.90;99.90;;;;;;5124535;27;20284;-86
2023/01/08 04:51:45;;;;;;;4.67;2.97;;;9.80;99.90;;;;;;5125123;27;20216;-85
2023/01/08 04:54:12;;;;;;;4.43;3.00;;;9.90;99.90;;;;;;5116050;27;20209;-86
2023/01/08 04:56:39;;;;;;;3.70;3.00;;;9.70;99.90;;;;;;5126431;28;20201;-86
2023/01/08 04:59:06;;;;;;;4.33;3.40;;;9.60;99.90;;;;;;5121572;28;20237;-85
2023/01/08 05:01:33;;;;;;;3.20;2.90;;;9.60;99.90;;;;;;5126572;28;20272;-85
2023/01/08 05:04:01;;;;;;;5.10;3.00;;;9.70;99.90;;;;;;5125759;28;20284;-86
2023/01/08 05:06:30;;;;;;;3.87;2.90;;;9.60;99.90;;;;;;5115658;28;20228;-85
2023/01/08 05:08:58;;;;;;;3.87;3.17;;;9.60;99.90;;;;;;5125669;27;20668;-85
2023/01/08 05:11:26;;;;;;;4.07;3.10;;;9.60;99.90;;;;;;5124982;27;20673;-85
2023/01/08 05:13:53;;;;;;;4.17;3.10;;;9.60;99.90;;;;;;5126610;28;20328;-85
2023/01/08 05:16:20;;;;;;;3.43;3.00;;;9.50;99.90;;;;;;5123934;27;20201;-85
2023/01/08 05:18:47;;;;;;;3.40;2.60;;;9.60;99.90;;;;;;5124610;27;20276;-86
2023/01/08 05:21:14;;;;;;;4.03;3.27;;;9.50;99.90;;;;;;5128511;27;20204;-86
2023/01/08 05:23:45;;;;;;;3.53;3.20;;;9.50;99.90;;;;;;5126301;27;20232;-85
2023/01/08 05:26:13;;;;;;;4.23;3.50;;;9.50;99.90;;;;;;5126317;28;20272;-86
2023/01/08 05:28:40;;;;;;;4.50;3.60;;;9.50;99.90;;;;;;5131990;27;20213;-86
2023/01/08 05:31:08;;;;;;;4.03;3.20;;;9.50;99.90;;;;;;5125341;27;20894;-86
2023/01/08 05:33:35;;;;;;;5.17;3.30;;;9.50;99.90;;;;;;5124295;27;20251;-85
2023/01/08 05:36:05;;;;;;;4.13;3.30;;;9.50;99.90;;;;;;5126070;27;20239;-85
2023/01/08 05:38:31;;;;;;;5.17;3.67;;;9.50;99.90;;;;;;5120939;28;20190;-86
2023/01/08 05:40:58;;;;;;;4.77;3.33;;;9.50;99.90;;;;;;5127486;28;20637;-85
2023/01/08 05:43:27;;;;;;;4.50;3.20;;;9.50;99.90;;;;;;5125117;28;20300;-87
2023/01/08 05:45:53;;;;;;;4.73;3.60;;;9.50;99.90;;;;;;5125043;28;20236;-86
2023/01/08 05:48:20;;;;;;;4.87;3.30;;;9.50;99.90;;;;;;5119855;27;20308;-85
2023/01/08 05:50:50;;;;;;;6.43;3.47;;;9.50;99.90;;;;;;5135143;27;20261;-85
2023/01/08 05:53:16;;;;;;;4.13;3.20;;;9.50;99.90;;;;;;5127446;27;20225;-86
2023/01/08 05:55:43;;;;;;;7.67;4.20;;;9.50;99.90;;;;;;5128550;27;20228;-84
2023/01/08 05:58:11;;;;;;;8.73;4.10;;;9.50;99.90;;;;;;5128143;27;20223;-85
2023/01/08 06:00:39;;;;;;;5.90;3.83;;;9.50;99.90;;;;;;5127430;27;20205;-85
2023/01/08 06:03:06;;;;;;;5.87;4.20;;;9.50;99.90;;;;;;5128807;27;20244;-85
2023/01/08 06:05:33;;;;;;;4.27;3.67;;;9.50;99.90;;;;;;5125061;27;20341;-85
2023/01/08 06:08:01;;;;;;;6.23;3.90;;;9.40;99.90;;;;;;5126936;27;20248;-85
2023/01/08 06:10:28;;;;;;;7.37;4.00;;;9.30;99.90;;;;;;5129770;28;20230;-85
2023/01/08 06:12:55;;;;;;;7.50;4.07;;;9.30;99.90;;;;;;5124203;27;20214;-85
2023/01/08 06:15:22;;;;;;;5.27;4.03;;;9.50;99.90;;;;;;5125554;27;20272;-85
2023/01/08 06:17:51;;;;;;;3.50;3.20;;;9.30;99.90;;;;;;5127148;28;20188;-85
2023/01/08 06:20:18;;;;;;;5.47;3.90;;;9.30;99.90;;;;;;5126723;28;20213;-84
2023/01/08 06:22:45;;;;;;;5.23;3.77;;;9.30;99.90;;;;;;5120593;27;20236;-85
2023/01/08 06:25:12;;;;;;;5.37;4.10;;;9.30;99.90;;;;;;5129853;27;20714;-85
2023/01/08 06:27:39;;;;;;;6.00;3.43;;;9.30;99.90;;;;;;5138051;27;20227;-84
2023/01/08 06:30:07;;;;;;;6.73;4.30;;;9.40;99.90;;;;;;5133950;27;20205;-85
2023/01/08 06:32:35;;;;;;;6.73;4.27;;;9.40;99.90;;;;;;5125312;28;20685;-84
2023/01/08 06:35:03;;;;;;;7.50;4.03;;;9.40;99.90;;;;;;5123376;27;20269;-85
2023/01/08 06:37:30;;;;;;;6.03;4.10;;;9.40;99.90;;;;;;5125348;27;20211;-83
2023/01/08 06:39:57;;;;;;;5.57;3.90;;;9.40;99.90;;;;;;5129401;28;20201;-84
2023/01/08 06:42:24;;;;;;;5.57;3.80;;;9.20;99.90;;;;;;5128950;28;20331;-84
2023/01/08 06:44:50;;;;;;;5.20;3.70;;;9.40;99.90;;;;;;5123698;28;20193;-84
2023/01/08 06:47:17;;;;;;;8.63;4.10;;;9.30;99.90;;;;;;5126322;28;20378;-83
2023/01/08 06:49:44;;;;;;;6.90;3.70;;;9.30;99.90;;;;;;5125818;28;20265;-83
2023/01/08 06:52:12;;;;;;;6.17;3.97;;;9.30;99.90;;;;;;5124226;27;20288;-84
2023/01/08 06:54:39;;;;;;;5.60;4.13;;;9.30;99.90;;;;;;5127375;28;20268;-82
2023/01/08 06:57:06;;;;;;;5.40;4.27;;;9.30;99.90;;;;;;5120048;28;20292;-82
2023/01/08 06:59:32;;;;;;;5.57;3.77;;;9.30;99.90;;;;;;5123277;27;20257;-81
2023/01/08 07:01:59;;;;;;;5.80;4.20;;;9.30;99.90;;;;;;5125227;27;20202;-83
2023/01/08 07:04:26;;;;;;;5.73;4.13;;;9.20;99.90;;;;;;5127924;28;20310;-84
2023/01/08 07:06:53;;;;;;;7.67;4.80;;;9.30;99.90;;;;;;5130155;28;20211;-83
2023/01/08 07:09:21;;;;;;;7.23;4.40;;;9.30;99.90;;;;;;5123547;28;20221;-84
2023/01/08 07:11:47;;;;;;;7.27;4.57;;;9.20;99.90;;;;;;5128118;28;20269;-84
2023/01/08 07:14:14;;;;;;;9.30;5.10;;;9.20;99.90;;;;;;5126210;28;20264;-84
2023/01/08 07:16:41;;;;;;;5.80;4.37;;;9.10;99.90;;;;;;5125137;28;20231;-83
2023/01/08 07:19:08;;;;;;;6.60;4.40;;;9.20;99.90;;;;;;5123534;28;20201;-83
2023/01/08 07:21:34;;;;;;;5.47;4.13;;;9.10;99.90;;;;;;5124731;28;20209;-84
2023/01/08 07:24:01;;;;;;;5.80;4.23;;;9.10;99.90;;;;;;5109763;28;20252;-83
2023/01/08 07:26:30;;;;;;;8.93;4.90;;;9.00;99.90;;;;;;5113582;28;20585;-84
2023/01/08 07:28:57;;;;;;;10.60;6.63;;;9.00;99.90;;;;;;5119607;28;20217;-84
2023/01/08 07:31:24;;;;;;;9.03;6.03;;;9.00;99.90;;;;;;5120867;28;20260;-84
2023/01/08 07:33:50;;;;;;;8.67;4.90;;;9.00;99.90;;;;;;5117770;28;20221;-85
2023/01/08 07:36:21;;;;;;;6.20;4.57;;;9.00;99.90;;;;;;5113347;28;20287;-85
2023/01/08 07:38:48;;;;;;;6.77;4.40;;;8.90;99.90;;;;;;5114710;28;20223;-84
2023/01/08 07:41:15;;;;;;;5.67;4.33;;;8.90;99.90;;;;;;5122840;28;20197;-83
2023/01/08 07:43:43;;;;;;;5.03;4.17;;;8.90;99.90;;;;;;5118871;27;20279;-85
2023/01/08 07:46:10;;;;;;;6.00;4.40;;;8.90;99.90;;;;;;5124957;28;20277;-85
2023/01/08 07:48:37;;;;;;;7.00;4.43;;;9.00;99.90;;;;;;5123003;27;20217;-85
2023/01/08 07:51:06;;;;;;;5.47;4.10;;;8.90;99.90;;;;;;5126720;27;20208;-84
2023/01/08 07:53:33;;;;;;;4.73;3.47;;;8.90;99.90;;;;;;5123078;27;20220;-84
2023/01/08 07:56:00;;;;;;;7.10;4.30;;;8.80;99.90;;;;;;5122207;27;20633;-84
2023/01/08 07:58:27;;;;;;;7.37;4.40;;;8.90;99.90;;;;;;5123478;27;20193;-84
2023/01/08 08:00:56;;;;;;;7.40;4.47;;;8.90;99.90;;;;;;5119273;28;20197;-85
2023/01/08 08:03:23;;;;;;;5.87;4.63;;;8.90;99.90;;;;;;5116257;28;20226;-86
2023/01/08 08:05:51;;;;;;;5.33;3.73;;;9.00;99.90;;;;;;5121838;27;20197;-84
2023/01/08 08:08:18;;;;;;;6.33;4.00;;;9.00;99.90;;;;;;5120693;28;20221;-83
2023/01/08 08:10:45;;;;;;;6.53;4.13;;;9.10;99.90;;;;;;5122660;27;20193;-84
2023/01/08 08:13:12;;;;;;;4.90;3.83;;;9.00;99.90;;;;;;5128148;27;20229;-84
2023/01/08 08:15:40;;;;;;;4.80;3.70;;;9.20;99.90;;;;;;5122542;27;20235;-84
2023/01/08 08:18:08;;;;;;;4.30;3.50;;;9.10;99.90;;;;;;5114880;28;20633;-84
2023/01/08 08:20:35;;;;;;;6.07;3.53;;;9.10;99.90;;;;;;5114829;28;20206;-84
2023/01/08 08:23:04;;;;;;;5.37;3.50;;;9.10;99.90;;;;;;5116714;28;20593;-85
2023/01/08 08:25:31;;;;;;;3.67;3.07;;;9.10;99.90;;;;;;5111869;27;20205;-85
2023/01/08 08:27:58;;;;;;;4.60;3.20;;;9.20;99.90;;;;;;5111573;27;20706;-85
2023/01/08 08:30:26;;;;;;;4.50;3.13;;;9.20;99.90;;;;;;5116429;27;20205;-83
2023/01/08 08:32:53;;;;;;;3.70;2.93;;;9.20;99.90;;;;;;5116111;27;20227;-85
2023/01/08 08:35:22;;;;;;;3.97;3.43;;;9.20;99.90;;;;;;5120388;27;20201;-85
2023/01/08 08:37:49;;;;;;;2.70;2.47;;;9.20;99.90;;;;;;5113349;28;20201;-84
2023/01/08 08:40:16;;;;;;;4.77;2.63;;;9.20;99.90;;;;;;5116768;27;20220;-85
2023/01/08 08:42:43;;;;;;;5.30;2.90;;;9.20;99.90;;;;;;5114021;27;20232;-85
2023/01/08 08:45:10;;;;;;;4.60;2.90;;;9.30;99.90;;;;;;5116004;27;20289;-85
2023/01/08 08:47:37;;;;;;;4.10;2.97;;;9.30;99.90;;;;;;5115160;27;20232;-85
2023/01/08 08:50:04;;;;;;;3.27;2.97;;;9.30;99.90;;;;;;5117744;28;20201;-85
2023/01/08 08:52:33;;;;;;;3.80;3.10;;;9.30;99.90;;;;;;5115821;27;20588;-85
2023/01/08 08:55:00;;;;;;;3.43;2.67;;;9.30;99.90;;;;;;5112043;27;20673;-85
2023/01/08 08:57:27;;;;;;;4.17;2.90;;;9.40;99.90;;;;;;5111979;28;20296;-85
2023/01/08 08:59:54;;;;;;;3.37;2.70;;;9.30;99.90;;;;;;5114951;27;20236;-86
2023/01/08 09:02:21;;;;;;;3.50;2.60;;;9.40;99.90;;;;;;5111519;27;20229;-85
2023/01/08 09:04:48;;;;;;;2.90;2.60;;;9.40;99.90;;;;;;5112544;28;20235;-84
2023/01/08 09:07:15;;;;;;;3.37;2.80;;;9.40;99.90;;;;;;5114661;28;20249;-85
2023/01/08 09:09:43;;;;;;;2.80;2.50;;;9.40;99.90;;;;;;5120806;27;20304;-85
2023/01/08 09:12:10;;;;;;;4.03;3.03;;;9.50;99.90;;;;;;5112675;27;20304;-85
2023/01/08 09:14:36;;;;;;;4.90;3.63;;;9.60;99.90;;;;;;5110847;28;20850;-85
2023/01/08 09:17:03;;;;;;;3.00;2.60;;;9.60;99.90;;;;;;5109824;27;20197;-85
2023/01/08 09:19:30;;;;;;;3.03;2.50;;;9.70;99.90;;;;;;5112096;27;20382;-85
2023/01/08 09:21:57;;;;;;;2.63;2.43;;;9.80;99.90;;;;;;5110109;27;20288;-85
2023/01/08 09:24:24;;;;;;;2.40;2.20;;;9.90;99.90;;;;;;5114382;28;20201;-85
2023/01/08 09:26:54;;;;;;;2.60;2.40;;;10.00;99.90;;;;;;5116040;27;20201;-85
2023/01/08 09:29:21;;;;;;;2.77;2.30;;;10.00;99.90;;;;;;5114679;28;20227;-86
2023/01/08 09:31:48;;;;;;;2.50;2.30;;;10.00;99.90;;;;;;5110264;27;20290;-85
2023/01/08 09:34:15;;;;;;;3.10;2.80;;;10.00;99.90;;;;;;5114693;28;20708;-86
2023/01/08 09:36:42;;;;;;;2.23;1.93;;;10.10;99.90;;;;;;5115516;28;21642;-85
2023/01/08 09:39:09;;;;;;;2.60;2.40;;;10.20;99.90;;;;;;5113088;28;20201;-84
2023/01/08 09:41:40;;;;;;;2.43;2.23;;;10.30;99.90;;;;;;5114573;27;20209;-84
2023/01/08 09:44:15;;;;;;;2.27;2.10;;;10.30;99.90;;;;;;5113510;27;20235;-85
2023/01/08 09:46:42;;;;;;;2.53;2.10;;;10.20;99.90;;;;;;5115876;27;20193;-84
2023/01/08 09:49:15;;;;;;;2.23;2.03;;;10.20;99.90;;;;;;5112899;28;20704;-85
2023/01/08 09:51:42;;;;;;;3.13;2.30;;;10.30;99.90;;;;;;5112245;27;20247;-84
2023/01/08 09:54:15;;;;;;;2.77;2.00;;;10.20;99.90;;;;;;5114244;27;20934;-84
2023/01/08 09:56:42;;;;;;;2.30;2.10;;;10.10;99.90;;;;;;5111427;27;20193;-85
2023/01/08 09:59:16;;;;;;;2.90;2.67;;;10.10;99.90;;;;;;5113426;28;20280;-85
2023/01/08 10:01:44;;;;;;;3.13;2.20;;;10.00;99.90;;;;;;5110340;27;20209;-85
2023/01/08 10:04:15;;;;;;;2.83;1.90;;;10.00;99.90;;;;;;5111207;28;20207;-85
2023/01/08 10:06:49;;;;;;;2.57;2.37;;;10.00;99.90;;;;;;5106303;28;20266;-86
2023/01/08 10:09:16;;;;;;;2.50;2.17;;;9.90;99.90;;;;;;5113009;28;20602;-85
2023/01/08 10:11:45;;;;;;;2.07;1.90;;;10.00;99.90;;;;;;5112427;28;20211;-85
2023/01/08 10:14:21;;;;;;;2.17;1.97;;;10.10;99.90;;;;;;5114215;28;20201;-85
2023/01/08 10:16:51;;;;;;;2.97;2.63;;;10.00;99.90;;;;;;5105321;28;20204;-83
2023/01/08 10:19:18;;;;;;;4.90;3.83;;;10.00;99.90;;;;;;5113488;27;20228;-84
2023/01/08 10:21:45;;;;;;;2.50;2.20;;;10.00;99.90;;;;;;5111788;27;20661;-85
2023/01/08 10:24:12;;;;;;;2.30;1.90;;;10.10;99.90;;;;;;5104650;27;20547;-85
2023/01/08 10:26:39;;;;;;;2.10;1.90;;;10.10;99.90;;;;;;5093586;22;20230;-81
2023/01/08 10:29:12;;;;;;;1.73;1.63;;;10.20;99.90;;;;;;5026438;28;20224;-82
2023/01/08 10:31:46;;;;;;;1.93;1.57;;;10.10;99.90;;;;;;5033959;28;20207;-80
2023/01/08 10:34:26;;;;;;;1.67;1.50;;;10.20;99.90;;;;;;5007459;28;20559;-80
2023/01/08 10:36:54;;;;;;;1.73;1.63;;;10.20;99.90;;;;;;5011869;28;20215;-81
2023/01/08 10:39:25;;;;;;;2.50;1.73;;;10.20;99.90;;;;;;5012805;28;20206;-82
2023/01/08 10:41:55;;;;;;;3.17;1.70;;;10.30;99.90;;;;;;5013240;28;20208;-82
2023/01/08 10:44:24;;;;;;;2.13;1.70;;;10.30;99.90;;;;;;5004936;28;20205;-81
2023/01/08 10:46:55;;;;;;;2.43;2.20;;;10.30;99.90;;;;;;5010627;28;20214;-80
2023/01/08 10:49:30;;;;;;;1.43;1.33;;;10.30;99.90;;;;;;5011906;28;20224;-81
2023/01/08 10:51:58;;;;;;;1.50;1.40;;;10.30;99.90;;;;;;5011541;28;20207;-81
2023/01/08 10:54:31;;;;;;;1.57;1.47;;;10.40;99.90;;;;;;5013286;28;20232;-81
2023/01/08 10:56:58;;;;;;;1.50;1.40;;;10.40;99.90;;;;;;5009314;28;20503;-80
2023/01/08 10:59:25;;;;;;;2.33;1.97;;;10.40;99.90;;;;;;5009099;28;20197;-80
2023/01/08 11:01:55;;;;;;;2.17;1.87;;;10.40;99.90;;;;;;5010111;28;20212;-78
2023/01/08 11:04:27;;;;;;;1.63;1.53;;;10.50;99.90;;;;;;5012501;28;20219;-79
2023/01/08 11:06:58;;;;;;;2.20;1.30;;;10.60;99.90;;;;;;5011770;28;20718;-80
2023/01/08 11:09:30;;;;;;;1.37;1.27;;;10.60;99.90;;;;;;5008036;28;20220;-80
2023/01/08 11:11:57;;;;;;;1.50;1.40;;;10.60;99.90;;;;;;5010449;28;20208;-80
2023/01/08 11:14:27;;;;;;;2.17;1.90;;;10.70;99.90;;;;;;5011319;28;20224;-81
2023/01/08 11:16:56;;;;;;;2.73;1.73;;;10.70;99.90;;;;;;5003968;28;20219;-82
2023/01/08 11:19:25;;;;;;;1.47;1.37;;;10.80;99.90;;;;;;5011275;28;20232;-81
2023/01/08 11:21:59;;;;;;;1.47;1.37;;;10.80;99.90;;;;;;5007439;28;20546;-81
2023/01/08 11:24:29;;;;;;;1.33;1.23;;;10.80;99.90;;;;;;5006686;28;20204;-81
2023/01/08 11:27:02;;;;;;;1.30;1.20;;;10.80;99.90;;;;;;5001981;28;20582;-83
2023/01/08 11:29:37;;;;;;;1.30;1.20;;;10.80;99.90;;;;;;5011974;28;20234;-82
2023/01/08 11:32:18;;;;;;;1.00;1.00;;;10.80;99.90;;;;;;5011139;28;20220;-81
2023/01/08 11:34:54;;;;;;;1.97;1.27;;;10.90;99.90;;;;;;5012252;28;20206;-79
2023/01/08 11:37:23;;;;;;;0.97;0.93;;;10.70;99.90;;;;;;5012042;28;20667;-80
2023/01/08 11:39:51;;;;;;;1.03;0.93;;;10.90;99.90;;;;;;5010353;28;20201;-81
2023/01/08 11:42:38;;;;;;;1.40;0.90;;;11.00;99.90;;;;;;5011500;28;20351;-81
2023/01/08 11:45:16;;;;;;;0.60;0.60;;;10.90;99.90;;;;;;5012376;28;20200;-80
2023/01/08 11:48:12;;;;;;;1.23;1.13;;;11.00;99.90;;;;;;5011826;28;20216;-82
2023/01/08 11:50:46;;;;;;;1.13;0.80;;;11.10;99.90;;;;;;5015002;28;20291;-82
2023/01/08 11:53:22;;;;;;;1.00;1.00;;;11.10;99.90;;;;;;5013336;28;20238;-85
2023/01/08 11:56:06;;;;;;;1.03;0.93;;;11.20;99.90;;;;;;5015778;28;20196;-83
2023/01/08 11:58:48;;;;;;;0.97;0.80;;;11.20;99.90;;;;;;5005854;28;20204;-82
2023/01/08 12:01:27;;;;;;;0.90;0.90;;;11.20;99.90;;;;;;5014237;28;20211;-82
2023/01/08 12:04:16;;;;;;;2.37;1.30;;;11.20;99.90;;;;;;5014363;28;20223;-82
2023/01/08 12:06:52;;;;;;;1.70;0.90;;;11.20;99.90;;;;;;5014454;28;20193;-82
2023/01/08 12:09:35;;;;;;;1.00;0.97;;;11.20;99.90;;;;;;5011049;28;20216;-84
2023/01/08 12:12:12;;;;;;;0.80;0.80;;;11.00;99.90;;;;;;5011544;28;20201;-82
2023/01/08 12:14:52;;;;;;;1.53;1.20;;;10.90;99.90;;;;;;5013316;28;20196;-82
2023/01/08 12:17:48;;;;;;;0.83;0.83;;;10.90;99.90;;;;;;5007968;28;20212;-81
2023/01/08 12:20:26;;;;;;;0.80;0.80;;;10.80;99.90;;;;;;5008273;28;20205;-82
2023/01/08 12:23:02;;;;;;;1.83;0.90;;;10.80;99.90;;;;;;5013438;28;20230;-81
2023/01/08 12:25:55;;;;;;;1.10;0.90;;;10.60;99.90;;;;;;5014953;28;20694;-83
2023/01/08 12:28:46;;;;;;;1.30;0.90;;;10.60;99.90;;;;;;5014549;28;20207;-81
2023/01/08 12:31:32;;;;;;;0.80;0.80;;;10.60;99.90;;;;;;5009780;28;20208;-82
2023/01/08 14:07:14;;;;;;;2.40;1.00;;;10.50;99.90;;;;;;5015161;28;20224;-89
2023/01/08 14:09:43;;;;;;;1.83;1.23;;;10.50;99.90;;;;;;5020307;28;20615;-89
2023/01/08 14:12:14;;;;;;;1.40;1.23;;;10.30;99.90;;;;;;5012565;28;20561;-89
2023/01/08 14:14:45;;;;;;;2.90;1.30;;;10.40;99.90;;;;;;5006246;28;20209;-89
2023/01/08 14:17:15;;;;;;;1.87;1.17;;;10.40;99.90;;;;;;5009723;28;20303;-88
2023/01/08 14:19:51;;;;;;;1.27;1.17;;;10.40;99.90;;;;;;5009963;28;20287;-89
2023/01/08 14:22:24;;;;;;;1.70;1.13;;;10.40;99.90;;;;;;5008269;28;20212;-89
2023/01/08 14:24:55;;;;;;;1.43;1.27;;;10.50;99.90;;;;;;5009722;28;20650;-89
2023/01/08 14:27:24;;;;;;;2.30;1.33;;;10.30;99.90;;;;;;5018760;28;20227;-90
2023/01/08 14:29:51;;;;;;;1.63;1.10;;;10.40;99.90;;;;;;5010719;28;20220;-89
2023/01/08 14:32:20;;;;;;;0.90;0.90;;;10.20;99.90;;;;;;5008868;28;20205;-89
2023/01/08 14:34:49;;;;;;;2.60;1.23;;;10.30;99.90;;;;;;5017431;28;20229;-89
2023/01/08 14:37:19;;;;;;;1.63;1.20;;;10.30;99.90;;;;;;5010473;28;20232;-89